Time;durP1;ratioP1;P1;durP2;ratioP2;P2;SDS_P1;SDS_P2;PMS_P1;PMS_P2;Temp;Humidity;BMP_temperature;BMP_pressure;BME280_temperature;BME280_humidity;BME280_pressure;Samples;Min_cycle;Max_cycle;Signal;HPM_P1;HPM_P2
2021/01/16 04:01:06;;;;;;;24.25;12.05;;;-2.00;99.90;;;;;;5574366;23;87090;-89
2021/01/16 04:03:31;;;;;;;24.38;12.38;;;-2.10;99.90;;;;;;4953296;28;83104;-89
2021/01/16 04:05:57;;;;;;;26.17;12.60;;;-2.20;99.90;;;;;;4960000;28;83411;-90
2021/01/16 04:08:23;;;;;;;25.90;13.10;;;-2.30;99.90;;;;;;4959657;28;85195;-89
2021/01/16 04:10:49;;;;;;;26.08;13.23;;;-2.30;99.90;;;;;;4960015;28;86257;-89
2021/01/16 04:13:14;;;;;;;27.60;13.65;;;-2.30;99.90;;;;;;4954929;28;85818;-89
2021/01/16 04:15:40;;;;;;;28.27;13.93;;;;;;;;;;4942032;28;83940;-90
2021/01/16 04:18:06;;;;;;;23.83;11.85;;;;;;;;;;4936198;28;87148;-90
2021/01/16 04:20:32;;;;;;;27.02;13.35;;;;;;;;;;4942657;28;85124;-89
2021/01/16 04:22:59;;;;;;;29.17;13.88;;;;;;;;;;4951981;28;83770;-88
2021/01/16 04:25:25;;;;;;;29.48;13.50;;;;;;;;;;4946015;28;85314;-89
2021/01/16 04:27:52;;;;;;;26.23;12.02;;;;;;;;;;4952054;28;84547;-89
2021/01/16 04:30:19;;;;;;;26.55;13.52;;;-2.40;99.90;;;;;;4956494;28;87434;-89
2021/01/16 04:32:46;;;;;;;29.15;13.23;;;-2.50;99.90;;;;;;4951249;28;82956;-89
2021/01/16 04:35:16;;;;;;;27.33;12.95;;;-2.60;99.90;;;;;;4938752;28;85530;-89
2021/01/16 04:37:51;;;;;;;26.50;12.40;;;-3.40;99.90;;;;;;4949882;28;83939;-89
2021/01/16 04:40:17;;;;;;;27.98;12.77;;;;;;;;;;4942794;28;84287;-89
2021/01/16 04:42:46;;;;;;;25.25;12.25;;;-2.60;99.90;;;;;;4947603;28;83978;-89
2021/01/16 04:45:15;;;;;;;27.73;12.77;;;-2.70;99.90;;;;;;4965387;28;85411;-90
2021/01/16 04:47:58;;;;;;;28.60;13.07;;;-2.60;99.90;;;;;;4957855;28;85788;-90
2021/01/16 04:50:29;;;;;;;27.23;12.70;;;-2.70;99.90;;;;;;4959482;28;83910;-90
2021/01/16 04:53:08;;;;;;;25.08;11.15;;;-2.70;99.90;;;;;;4955260;28;83767;-89
2021/01/16 04:55:38;;;;;;;23.90;10.85;;;-2.70;99.90;;;;;;4953954;28;84148;-89
2021/01/16 04:58:07;;;;;;;25.83;11.98;;;-2.70;99.90;;;;;;4946250;28;85074;-90
2021/01/16 05:00:35;;;;;;;25.38;12.68;;;-2.90;99.90;;;;;;4964916;28;84554;-89
2021/01/16 05:03:05;;;;;;;28.25;13.32;;;-2.90;99.90;;;;;;4970151;28;83827;-89
2021/01/16 05:05:31;;;;;;;19.58;11.00;;;;;;;;;;4980363;28;84298;-90
2021/01/16 05:08:00;;;;;;;26.60;12.60;;;-2.90;99.90;;;;;;4979901;28;83744;-90
2021/01/16 05:10:35;;;;;;;28.27;12.30;;;-3.00;99.90;;;;;;4967468;28;84464;-88
2021/01/16 05:13:01;;;;;;;26.33;11.68;;;;;;;;;;4964392;28;83854;-90
2021/01/16 05:15:31;;;;;;;30.10;12.98;;;-3.00;99.90;;;;;;4976902;28;83993;-91
2021/01/16 05:18:06;;;;;;;27.88;12.32;;;-3.10;99.90;;;;;;4977119;28;85989;-90
2021/01/16 05:20:49;;;;;;;28.10;12.68;;;-3.10;99.90;;;;;;4965805;28;85358;-89
2021/01/16 05:23:15;;;;;;;29.38;13.63;;;;;;;;;;4978259;28;83672;-89
2021/01/16 05:26:07;;;;;;;30.95;15.82;;;-3.10;99.90;;;;;;4968154;28;83631;-89
2021/01/16 05:28:34;;;;;;;27.35;12.95;;;-3.10;99.90;;;;;;4963943;28;84563;-89
2021/01/16 05:31:10;;;;;;;32.55;14.82;;;-3.00;99.90;;;;;;4974584;28;85531;-89
2021/01/16 05:33:47;;;;;;;28.05;12.70;;;-2.90;99.90;;;;;;4958759;28;83851;-89
2021/01/16 05:36:13;;;;;;;30.27;13.52;;;;;;;;;;4974924;28;83508;-90
2021/01/16 05:38:45;;;;;;;31.17;13.52;;;-3.00;99.90;;;;;;4967421;28;83864;-87
2021/01/16 05:41:25;;;;;;;33.35;14.30;;;-3.00;99.90;;;;;;4969996;28;84570;-88
2021/01/16 05:43:52;;;;;;;29.05;13.38;;;-3.00;99.90;;;;;;4963682;28;84780;-88
2021/01/16 05:46:21;;;;;;;32.15;15.07;;;-3.10;99.90;;;;;;4971701;28;83659;-89
2021/01/16 05:49:01;;;;;;;33.50;14.95;;;-3.20;99.90;;;;;;4957672;28;86792;-89
2021/01/16 05:51:30;;;;;;;34.87;16.00;;;-3.20;99.90;;;;;;4965593;28;84947;-89
2021/01/16 05:54:01;;;;;;;35.58;15.82;;;-3.30;99.90;;;;;;4969344;28;83553;-89
2021/01/16 05:56:30;;;;;;;39.38;17.48;;;-3.30;99.90;;;;;;4950724;28;83261;-90
2021/01/16 05:59:01;;;;;;;35.90;15.57;;;-3.40;99.90;;;;;;4976558;28;84717;-90
2021/01/16 06:01:37;;;;;;;35.38;15.27;;;-3.40;99.90;;;;;;4966734;28;83749;-89
2021/01/16 06:04:04;;;;;;;40.25;17.05;;;-3.40;99.90;;;;;;4956551;28;83970;-90
2021/01/16 06:06:36;;;;;;;37.85;15.93;;;-3.40;99.90;;;;;;4968073;28;83524;-90
2021/01/16 06:09:03;;;;;;;37.00;15.80;;;-3.40;99.90;;;;;;4973972;28;84466;-90
2021/01/16 06:11:40;;;;;;;37.72;15.35;;;-3.40;99.90;;;;;;4979522;28;83789;-90
2021/01/16 06:14:11;;;;;;;39.28;17.15;;;-3.40;99.90;;;;;;4964424;28;84079;-89
2021/01/16 06:16:58;;;;;;;35.58;15.48;;;-3.40;99.90;;;;;;4961092;28;84138;-90
2021/01/16 06:19:26;;;;;;;37.03;16.45;;;-3.50;99.90;;;;;;4959358;28;85886;-89
2021/01/16 06:21:54;;;;;;;40.60;17.02;;;-3.50;99.90;;;;;;4967666;28;84274;-91
2021/01/16 06:24:23;;;;;;;39.15;16.27;;;-3.60;99.90;;;;;;4957649;28;83814;-88
2021/01/16 06:27:01;;;;;;;36.60;17.02;;;-3.60;99.90;;;;;;4964287;28;83844;-89
2021/01/16 06:29:34;;;;;;;37.28;14.48;;;-3.60;99.90;;;;;;4972531;28;84647;-88
2021/01/16 06:32:08;;;;;;;37.75;17.38;;;-3.70;99.90;;;;;;4971841;28;83551;-89
2021/01/16 06:34:39;;;;;;;39.65;16.80;;;-3.80;99.90;;;;;;4966002;28;85625;-87
2021/01/16 06:37:15;;;;;;;35.38;16.10;;;-3.80;99.90;;;;;;4981262;28;83132;-87
2021/01/16 06:39:54;;;;;;;36.70;15.98;;;-3.90;99.90;;;;;;4981142;28;83600;-88
2021/01/16 06:42:38;;;;;;;40.33;16.63;;;-3.90;99.90;;;;;;4986996;28;83896;-86
2021/01/16 06:45:06;;;;;;;40.15;16.58;;;-4.00;99.90;;;;;;4966164;28;83583;-88
2021/01/16 06:48:01;;;;;;;42.42;19.83;;;-4.00;99.90;;;;;;4965850;28;83506;-90
2021/01/16 06:50:34;;;;;;;38.70;15.67;;;-4.00;99.90;;;;;;4961559;28;85019;-90
2021/01/16 06:53:00;;;;;;;43.83;18.55;;;;;;;;;;4964980;28;86320;-90
2021/01/16 06:55:29;;;;;;;43.63;17.75;;;-4.30;99.90;;;;;;4960071;28;83858;-89
2021/01/16 06:57:56;;;;;;;48.20;18.63;;;-4.30;99.90;;;;;;4964900;28;84935;-90
2021/01/16 07:00:25;;;;;;;52.33;20.45;;;-4.40;99.90;;;;;;4957590;28;84970;-91
2021/01/16 07:02:55;;;;;;;48.22;18.13;;;-4.40;99.90;;;;;;4944470;28;86511;-90
2021/01/16 07:05:22;;;;;;;46.05;19.33;;;-4.50;99.90;;;;;;4950739;28;85526;-90
2021/01/16 07:07:53;;;;;;;41.30;17.55;;;-4.50;99.90;;;;;;4959554;28;83846;-90
2021/01/16 07:10:20;;;;;;;;;;;-4.50;99.90;;;;;;4970579;28;85882;-90
2021/01/16 07:12:53;;;;;;;56.80;19.40;;;-4.60;99.90;;;;;;4963723;28;83568;-90
2021/01/16 07:15:21;;;;;;;48.70;19.10;;;-4.70;99.90;;;;;;4936452;28;84254;-89
2021/01/16 07:17:48;;;;;;;48.93;20.17;;;;;;;;;;4966696;28;83454;-88
2021/01/16 07:20:15;;;;;;;52.77;21.00;;;-4.70;99.90;;;;;;4962714;28;83718;-89
2021/01/16 07:22:44;;;;;;;47.67;20.73;;;-4.80;99.90;;;;;;4970677;28;83812;-89
2021/01/16 07:25:13;;;;;;;51.33;20.07;;;-4.80;99.90;;;;;;4952718;28;83611;-88
2021/01/16 07:27:46;;;;;;;49.88;21.17;;;-4.80;99.90;;;;;;4959585;28;83743;-89
2021/01/16 07:30:16;;;;;;;48.50;19.30;;;-3.70;99.90;;;;;;4958434;28;83744;-89
2021/01/16 07:32:50;;;;;;;52.03;20.97;;;-4.90;99.90;;;;;;4964798;28;83977;-89
2021/01/16 07:35:19;;;;;;;49.45;20.15;;;-5.00;99.90;;;;;;4987587;28;83242;-88
2021/01/16 07:37:50;;;;;;;52.30;20.63;;;-4.90;99.90;;;;;;4973684;28;83692;-90
2021/01/16 07:40:26;;;;;;;48.87;19.77;;;-4.40;99.90;;;;;;4955154;28;84584;-89
2021/01/16 07:43:25;;;;;;;54.70;21.37;;;-4.70;99.90;;;;;;4961737;28;84182;-88
2021/01/16 07:45:58;;;;;;;;;;;-4.70;99.90;;;;;;4956700;28;84757;-89
2021/01/16 07:48:31;;;;;;;53.05;19.33;;;-4.60;99.90;;;;;;4968047;28;83587;-89
2021/01/16 07:51:05;;;;;;;48.00;19.43;;;-4.20;99.90;;;;;;4967574;28;84095;-89
2021/01/16 07:53:41;;;;;;;53.27;19.40;;;-4.40;99.90;;;;;;4967024;28;84539;-87
2021/01/16 07:56:21;;;;;;;51.73;20.67;;;-4.20;99.90;;;;;;4948517;28;85044;-88
2021/01/16 07:59:12;;;;;;;50.23;21.13;;;-4.30;99.90;;;;;;4943573;28;84072;-90
2021/01/16 08:01:50;;;;;;;47.80;19.27;;;-4.30;99.90;;;;;;4959032;28;83654;-90
2021/01/16 08:04:44;;;;;;;41.90;18.33;;;-4.40;99.90;;;;;;4954692;28;84672;-88
2021/01/16 08:07:10;;;;;;;53.77;20.57;;;-4.40;99.90;;;;;;4952835;28;83342;-90
2021/01/16 08:09:53;;;;;;;50.27;18.60;;;-4.40;99.90;;;;;;4968093;28;83231;-89
2021/01/16 08:12:21;;;;;;;48.53;18.20;;;-4.40;99.90;;;;;;4961800;28;86241;-89
2021/01/16 08:14:47;;;;;;;44.63;18.87;;;-4.50;99.90;;;;;;4959470;28;83466;-89
2021/01/16 08:17:29;;;;;;;40.30;17.85;;;-4.30;99.90;;;;;;4961736;28;86439;-88
2021/01/16 08:20:27;;;;;;;44.03;18.67;;;-4.30;99.90;;;;;;4961611;28;83102;-89
2021/01/16 08:23:04;;;;;;;39.88;16.17;;;-4.20;99.90;;;;;;4955689;28;86264;-88
2021/01/16 08:25:33;;;;;;;41.40;16.98;;;-4.30;99.90;;;;;;4965015;28;83376;-89
2021/01/16 08:28:06;;;;;;;39.35;17.77;;;-4.10;99.90;;;;;;4952323;28;83668;-89
2021/01/16 08:30:33;;;;;;;47.33;19.77;;;-4.20;99.90;;;;;;4962521;28;84281;-89
2021/01/16 08:33:09;;;;;;;44.05;19.30;;;-4.10;99.90;;;;;;4968222;28;84815;-89
2021/01/16 08:35:38;;;;;;;45.78;19.58;;;-4.10;99.90;;;;;;4970429;28;84395;-86
2021/01/16 08:38:16;;;;;;;44.60;16.95;;;-4.00;99.90;;;;;;4968980;28;83862;-86
2021/01/16 08:40:54;;;;;;;36.97;14.77;;;-3.90;99.90;;;;;;4968248;28;84091;-87
2021/01/16 08:43:54;;;;;;;32.97;15.35;;;-3.80;99.90;;;;;;4970011;28;83436;-87
2021/01/16 08:46:30;;;;;;;31.50;13.07;;;-3.60;99.90;;;;;;4952272;28;84116;-87
2021/01/16 08:49:09;;;;;;;34.33;14.70;;;-3.60;99.90;;;;;;4968910;28;83078;-88
2021/01/16 08:51:54;;;;;;;30.77;14.55;;;-3.40;99.90;;;;;;4964638;28;84243;-87
2021/01/16 08:54:22;;;;;;;35.10;14.60;;;-3.20;99.90;;;;;;4959708;28;84584;-86
2021/01/16 08:56:50;;;;;;;35.42;17.10;;;-3.00;99.90;;;;;;4952409;28;85170;-89
2021/01/16 08:59:23;;;;;;;33.95;15.05;;;-2.70;99.90;;;;;;4964231;28;85589;-87
2021/01/16 09:01:53;;;;;;;30.00;13.07;;;-2.30;99.90;;;;;;4961083;28;83681;-88
2021/01/16 09:04:30;;;;;;;32.47;14.35;;;-2.40;99.90;;;;;;4961428;28;87390;-89
2021/01/16 09:07:39;;;;;;;29.45;14.10;;;-2.30;99.90;;;;;;4965329;28;83467;-88
2021/01/16 09:10:09;;;;;;;27.05;11.75;;;-1.30;99.90;;;;;;4985809;28;83103;-86
2021/01/16 09:12:40;;;;;;;29.17;13.30;;;-1.30;99.90;;;;;;4983930;28;83643;-87
2021/01/16 09:15:25;;;;;;;25.10;12.30;;;-1.30;99.90;;;;;;4965514;28;86477;-84
2021/01/16 09:18:03;;;;;;;23.98;10.80;;;-1.20;99.90;;;;;;4960259;28;84113;-86
2021/01/16 09:20:31;;;;;;;26.33;12.85;;;-1.30;99.90;;;;;;4966226;28;83953;-85
2021/01/16 09:22:57;;;;;;;27.73;12.88;;;-1.40;99.90;;;;;;4967295;28;83961;-84
2021/01/16 09:25:26;;;;;;;29.98;13.48;;;-1.50;99.90;;;;;;4970080;28;83565;-83
2021/01/16 09:27:53;;;;;;;29.70;12.05;;;-1.40;99.90;;;;;;4965615;28;83934;-84
2021/01/16 09:30:30;;;;;;;26.55;12.38;;;-1.50;99.90;;;;;;4971767;28;83685;-84
2021/01/16 09:32:55;;;;;;;21.45;12.27;;;-1.50;99.90;;;;;;4968474;28;83936;-88
2021/01/16 09:35:38;;;;;;;24.95;11.43;;;-1.50;99.90;;;;;;4955276;28;85039;-84
2021/01/16 09:38:23;;;;;;;27.63;11.77;;;-1.60;99.90;;;;;;4965708;28;87885;-85
2021/01/16 09:40:50;;;;;;;24.00;11.77;;;-1.70;99.90;;;;;;4973281;28;83852;-84
2021/01/16 09:43:26;;;;;;;23.17;10.65;;;-1.70;99.90;;;;;;4961029;28;83677;-83
2021/01/16 09:46:01;;;;;;;24.45;12.43;;;-1.90;99.90;;;;;;4957774;28;83605;-87
2021/01/16 09:48:39;;;;;;;25.85;12.85;;;-1.90;99.90;;;;;;4968172;28;84222;-85
2021/01/16 09:51:07;;;;;;;24.98;12.23;;;-1.90;99.90;;;;;;4972557;28;83534;-86
2021/01/16 09:53:40;;;;;;;25.83;12.68;;;-1.90;99.90;;;;;;4964079;28;83139;-88
2021/01/16 09:56:09;;;;;;;23.40;11.63;;;-1.90;99.90;;;;;;4966900;28;83638;-87
2021/01/16 09:58:51;;;;;;;23.65;11.55;;;-1.70;99.90;;;;;;4962686;28;83804;-87
2021/01/16 10:01:37;;;;;;;24.45;11.90;;;-1.30;99.90;;;;;;4940217;28;84120;-85
2021/01/16 10:04:21;;;;;;;26.20;13.57;;;-1.50;99.90;;;;;;4974057;28;83272;-86
2021/01/16 10:06:49;;;;;;;26.17;13.75;;;-1.50;99.90;;;;;;4969287;28;84693;-85
2021/01/16 10:09:21;;;;;;;27.55;12.65;;;-1.40;99.90;;;;;;4971734;28;84434;-87
2021/01/16 10:11:48;;;;;;;25.55;13.73;;;-1.50;99.90;;;;;;4976300;28;85490;-86
2021/01/16 10:14:15;;;;;;;31.05;14.20;;;-1.30;99.90;;;;;;4973089;28;83879;-86
2021/01/16 10:16:44;;;;;;;30.58;13.43;;;-1.20;99.90;;;;;;4977454;28;84499;-85
2021/01/16 10:19:16;;;;;;;25.52;13.75;;;-1.20;99.90;;;;;;4965227;28;86589;-85
2021/01/16 10:22:35;;;;;;;29.95;14.45;;;-1.20;99.90;;;;;;4957708;28;83702;-85
2021/01/16 10:25:12;;;;;;;26.83;13.52;;;-1.10;99.90;;;;;;4975061;28;83027;-87
2021/01/16 10:28:02;;;;;;;25.33;12.20;;;-1.00;99.90;;;;;;4967502;28;86720;-88
2021/01/16 10:30:33;;;;;;;30.30;12.82;;;-1.10;99.90;;;;;;4968559;28;83696;-89
2021/01/16 10:33:18;;;;;;;34.33;15.27;;;-1.00;99.90;;;;;;4967677;28;83685;-86
2021/01/16 10:35:52;;;;;;;25.77;13.05;;;-0.70;99.90;;;;;;4966901;28;83854;-86
2021/01/16 10:38:39;;;;;;;24.23;11.43;;;0.20;99.90;;;;;;4966515;28;85995;-88
2021/01/16 10:41:08;;;;;;;22.40;11.43;;;0.70;99.70;;;;;;4962597;28;84319;-82
2021/01/16 10:43:36;;;;;;;22.02;12.02;;;1.00;99.70;;;;;;4964042;28;83206;-84
2021/01/16 10:46:11;;;;;;;23.00;11.55;;;1.10;98.70;;;;;;4965085;28;84329;-83
2021/01/16 10:48:39;;;;;;;24.60;10.70;;;1.20;97.10;;;;;;4964303;28;84270;-83
2021/01/16 10:51:09;;;;;;;22.83;11.35;;;0.90;96.70;;;;;;4986150;28;84786;-83
2021/01/16 10:53:39;;;;;;;16.60;9.30;;;0.90;96.90;;;;;;4968565;28;83374;-78
2021/01/16 10:56:23;;;;;;;18.27;10.18;;;0.80;96.70;;;;;;4956544;28;84998;-83
2021/01/16 10:58:49;;;;;;;16.50;8.68;;;0.70;97.00;;;;;;4967928;28;83496;-78
2021/01/16 11:01:42;;;;;;;20.55;11.27;;;0.60;97.50;;;;;;4985349;28;84031;-78
2021/01/16 11:04:20;;;;;;;17.50;9.93;;;0.30;97.90;;;;;;4972929;28;83708;-79
2021/01/16 11:07:08;;;;;;;19.40;10.57;;;-0.10;99.60;;;;;;4969285;28;83342;-81
2021/01/16 11:09:36;;;;;;;18.67;10.20;;;0.60;98.40;;;;;;4952874;28;85032;-79
2021/01/16 11:12:03;;;;;;;19.05;11.48;;;0.60;98.30;;;;;;4968393;28;83916;-81
2021/01/16 11:14:42;;;;;;;18.08;10.90;;;1.20;99.90;;;;;;4956356;28;87536;-81
2021/01/16 11:17:10;;;;;;;15.23;8.30;;;0.70;97.90;;;;;;4963408;28;83090;-84
2021/01/16 11:19:44;;;;;;;14.73;9.52;;;0.70;97.70;;;;;;4959801;28;86981;-82
2021/01/16 11:22:11;;;;;;;14.05;8.45;;;1.20;98.80;;;;;;4963713;28;84329;-81
2021/01/16 11:24:52;;;;;;;17.15;9.25;;;2.00;93.90;;;;;;4955825;28;83746;-82
2021/01/16 11:27:20;;;;;;;12.90;7.95;;;2.50;92.80;;;;;;4964372;28;84256;-81
2021/01/16 11:29:47;;;;;;;17.00;8.98;;;3.10;91.70;;;;;;4961206;28;83521;-82
2021/01/16 11:32:17;;;;;;;16.23;9.25;;;3.20;87.80;;;;;;4966625;28;83614;-79
2021/01/16 11:35:01;;;;;;;15.35;8.73;;;3.10;88.90;;;;;;4961502;28;83430;-82
2021/01/16 11:37:56;;;;;;;16.35;8.70;;;3.30;90.20;;;;;;4961766;28;84414;-83
2021/01/16 11:40:26;;;;;;;17.83;10.18;;;3.70;84.40;;;;;;4955947;28;83929;-84
2021/01/16 11:43:02;;;;;;;15.50;9.27;;;3.40;85.20;;;;;;4962424;28;84340;-83
2021/01/16 11:45:28;;;;;;;20.10;10.93;;;3.30;87.40;;;;;;4961351;28;84327;-82
2021/01/16 11:47:58;;;;;;;18.85;10.32;;;3.50;85.00;;;;;;4963133;28;84006;-83
2021/01/16 11:50:26;;;;;;;18.30;11.75;;;3.80;83.50;;;;;;4965203;28;84610;-83
2021/01/16 11:52:52;;;;;;;18.23;10.98;;;4.00;84.20;;;;;;4958860;28;84420;-84
2021/01/16 11:55:18;;;;;;;18.35;11.32;;;4.10;82.70;;;;;;4959046;28;83582;-82
2021/01/16 11:57:45;;;;;;;17.80;10.35;;;3.80;81.70;;;;;;4962360;28;83730;-83
2021/01/16 12:00:12;;;;;;;18.17;10.43;;;3.80;84.00;;;;;;4967715;28;84011;-85
2021/01/16 12:02:39;;;;;;;17.45;10.85;;;3.90;84.60;;;;;;4963635;28;86053;-83
2021/01/16 12:05:15;;;;;;;17.70;10.90;;;4.30;85.60;;;;;;4971622;28;83996;-86
2021/01/16 12:07:48;;;;;;;20.13;11.25;;;5.10;83.40;;;;;;4961608;28;83978;-86
2021/01/16 12:10:20;;;;;;;14.93;10.50;;;5.70;73.00;;;;;;4965053;28;83853;-86
2021/01/16 12:12:46;;;;;;;18.48;10.57;;;6.70;75.00;;;;;;4966015;28;86818;-83
2021/01/16 12:15:22;;;;;;;17.08;11.00;;;8.10;71.70;;;;;;4966192;28;84073;-86
2021/01/16 12:17:50;;;;;;;15.55;10.38;;;9.30;62.70;;;;;;4963509;28;83986;-86
2021/01/16 12:20:18;;;;;;;14.80;10.38;;;10.50;60.90;;;;;;4960070;28;84439;-88
2021/01/16 12:22:49;;;;;;;15.07;9.95;;;12.20;59.80;;;;;;4965032;28;83686;-87
2021/01/16 12:25:16;;;;;;;;;;;13.20;51.90;;;;;;4976256;28;83827;-84
2021/01/16 12:27:51;;;;;;;16.13;10.90;;;13.60;48.40;;;;;;4963469;28;83950;-86
2021/01/16 12:30:19;;;;;;;17.70;11.95;;;13.20;47.70;;;;;;4965936;28;84676;-85
2021/01/16 12:32:45;;;;;;;19.35;12.60;;;12.40;48.10;;;;;;4964381;28;84852;-86
2021/01/16 12:35:12;;;;;;;18.38;12.38;;;11.60;49.60;;;;;;4970773;28;83968;-83
2021/01/16 12:37:39;;;;;;;17.42;12.65;;;10.70;51.40;;;;;;4965810;28;84316;-86
2021/01/16 12:40:12;;;;;;;18.52;12.85;;;9.80;52.90;;;;;;4962658;28;84285;-87
2021/01/16 12:42:38;;;;;;;17.45;11.77;;;8.80;51.90;;;;;;4962469;28;84284;-86
2021/01/16 12:45:11;;;;;;;15.10;11.00;;;7.80;55.50;;;;;;4973078;28;83843;-86
2021/01/16 12:47:38;;;;;;;18.77;12.43;;;7.10;58.90;;;;;;4970750;28;83623;-86
2021/01/16 12:50:05;;;;;;;16.90;11.95;;;6.50;60.70;;;;;;4960502;28;84009;-87
2021/01/16 12:52:32;;;;;;;19.45;12.05;;;6.00;63.10;;;;;;4957711;28;87657;-86
2021/01/16 12:55:05;;;;;;;19.77;12.35;;;5.90;63.90;;;;;;4971040;28;83864;-85
2021/01/16 12:57:36;;;;;;;19.85;12.50;;;5.70;63.80;;;;;;4965213;28;84732;-86
2021/01/16 13:00:05;;;;;;;18.77;11.98;;;5.50;63.80;;;;;;4962032;28;84283;-86
2021/01/16 13:02:31;;;;;;;17.90;11.13;;;5.40;64.70;;;;;;4958914;28;84025;-87
2021/01/16 13:05:04;;;;;;;21.77;13.23;;;5.40;64.00;;;;;;4957851;28;85864;-87
2021/01/16 13:07:31;;;;;;;19.05;13.27;;;5.20;63.90;;;;;;4958082;28;84557;-87
2021/01/16 13:10:00;;;;;;;22.00;12.88;;;5.60;65.10;;;;;;4951912;28;84613;-87
2021/01/16 13:12:38;;;;;;;22.17;14.40;;;6.00;65.30;;;;;;4969737;28;84014;-84
2021/01/16 13:15:05;;;;;;;22.08;14.65;;;6.40;65.90;;;;;;4972431;28;85570;-87
2021/01/16 13:17:35;;;;;;;25.92;15.15;;;6.70;64.80;;;;;;4953572;28;83485;-87
2021/01/16 13:20:06;;;;;;;21.90;13.60;;;6.90;63.60;;;;;;4960341;28;86333;-87
2021/01/16 13:22:32;;;;;;;21.33;14.00;;;7.00;62.90;;;;;;4952606;28;85265;-88
2021/01/16 13:25:09;;;;;;;21.83;15.10;;;7.00;64.00;;;;;;4953213;28;83994;-88
2021/01/16 13:27:37;;;;;;;25.60;16.83;;;7.10;63.30;;;;;;4968904;28;83486;-86
2021/01/16 13:30:10;;;;;;;25.80;16.33;;;7.10;63.70;;;;;;4964623;28;84391;-88
2021/01/16 13:32:37;;;;;;;22.55;14.15;;;7.20;63.00;;;;;;4968637;28;85190;-90
2021/01/16 13:35:06;;;;;;;23.13;15.07;;;7.60;63.50;;;;;;4959817;28;84779;-87
2021/01/16 13:37:33;;;;;;;20.90;14.30;;;8.10;62.10;;;;;;4967739;28;84168;-87
2021/01/16 13:40:03;;;;;;;23.27;15.60;;;8.30;61.50;;;;;;4958090;28;84650;-87
2021/01/16 13:42:30;;;;;;;25.98;15.77;;;8.20;61.20;;;;;;4953037;28;86264;-87
2021/01/16 13:45:03;;;;;;;21.98;14.27;;;7.90;59.70;;;;;;4956514;28;83444;-87
2021/01/16 13:47:30;;;;;;;24.23;13.93;;;7.60;61.70;;;;;;4953871;28;85679;-86
2021/01/16 13:50:15;;;;;;;21.80;13.55;;;7.10;62.00;;;;;;4962132;28;84904;-86
2021/01/16 13:52:41;;;;;;;24.20;15.57;;;6.70;62.40;;;;;;4960405;28;84331;-87
2021/01/16 13:55:15;;;;;;;23.75;14.98;;;6.30;63.60;;;;;;4967186;28;83940;-87
2021/01/16 13:57:42;;;;;;;22.83;15.13;;;6.00;64.50;;;;;;4959197;28;83399;-88
2021/01/16 14:00:15;;;;;;;21.42;13.90;;;5.60;66.30;;;;;;4970405;28;84721;-87
2021/01/16 14:02:42;;;;;;;23.42;14.02;;;5.60;66.90;;;;;;4972447;28;83738;-87
2021/01/16 14:05:11;;;;;;;24.45;15.40;;;5.50;67.20;;;;;;4956424;28;83877;-83
2021/01/16 14:07:37;;;;;;;23.05;14.57;;;5.30;67.30;;;;;;4962234;28;84145;-82
2021/01/16 14:10:04;;;;;;;23.48;15.15;;;4.90;67.20;;;;;;4966308;28;83954;-84
2021/01/16 14:12:29;;;;;;;22.40;13.73;;;4.80;68.80;;;;;;4958844;28;83864;-84
2021/01/16 14:15:07;;;;;;;22.30;13.32;;;4.60;69.20;;;;;;4958987;28;83933;-81
2021/01/16 14:17:39;;;;;;;22.45;14.38;;;4.40;70.40;;;;;;4954124;28;85603;-85
2021/01/16 14:20:07;;;;;;;20.40;12.73;;;4.30;71.50;;;;;;4965180;28;85448;-86
2021/01/16 14:22:48;;;;;;;25.17;14.07;;;4.20;72.30;;;;;;4955267;28;88307;-84
2021/01/16 14:25:38;;;;;;;22.77;14.63;;;4.00;73.00;;;;;;4959222;28;84873;-84
2021/01/16 14:28:04;;;;;;;23.67;13.32;;;3.90;74.80;;;;;;4959493;28;83555;-85
2021/01/16 14:30:35;;;;;;;23.08;14.38;;;3.80;75.60;;;;;;4963525;28;83686;-84
2021/01/16 14:33:08;;;;;;;22.60;14.10;;;3.70;76.40;;;;;;4968931;28;84553;-84
2021/01/16 14:35:36;;;;;;;27.23;15.65;;;3.60;77.00;;;;;;4964112;28;85600;-85
2021/01/16 14:38:04;;;;;;;26.15;16.38;;;3.40;78.80;;;;;;4951030;28;83677;-85
2021/01/16 14:40:34;;;;;;;27.17;16.13;;;3.40;79.80;;;;;;4948781;28;84825;-84
2021/01/16 14:43:07;;;;;;;22.70;15.00;;;3.30;80.40;;;;;;4956605;28;85395;-85
2021/01/16 14:45:37;;;;;;;25.50;15.30;;;3.30;80.80;;;;;;4961149;28;83498;-84
2021/01/16 14:48:13;;;;;;;23.42;14.80;;;3.20;80.50;;;;;;4955036;28;83943;-86
2021/01/16 14:50:40;;;;;;;26.73;15.13;;;3.10;82.10;;;;;;4963059;28;86047;-86
2021/01/16 14:53:25;;;;;;;25.55;14.80;;;2.90;82.80;;;;;;4965126;28;83823;-81
2021/01/16 14:56:13;;;;;;;25.45;15.77;;;2.80;84.40;;;;;;4964462;28;83744;-83
2021/01/16 14:58:53;;;;;;;28.23;15.95;;;2.70;85.40;;;;;;4966584;28;83559;-84
2021/01/16 15:01:19;;;;;;;27.55;15.55;;;2.70;86.70;;;;;;4966369;28;85025;-84
2021/01/16 15:03:45;;;;;;;26.67;16.85;;;2.60;87.20;;;;;;4963216;28;83970;-84
2021/01/16 15:06:10;;;;;;;28.60;16.33;;;2.50;87.00;;;;;;4971014;28;83772;-83
2021/01/16 15:08:47;;;;;;;27.90;15.82;;;2.40;87.40;;;;;;4982582;28;83033;-80
2021/01/16 15:11:17;;;;;;;26.40;15.40;;;2.20;88.70;;;;;;4969378;28;83683;-85
2021/01/16 15:13:48;;;;;;;26.83;13.90;;;2.10;88.70;;;;;;4964432;28;83588;-85
2021/01/16 15:16:13;;;;;;;26.27;15.82;;;2.00;89.40;;;;;;4978328;28;83342;-83
2021/01/16 15:18:39;;;;;;;26.52;15.85;;;1.80;90.40;;;;;;4986774;28;83039;-83
2021/01/16 15:21:05;;;;;;;27.73;15.43;;;1.50;91.40;;;;;;4986133;28;84421;-84
2021/01/16 15:23:31;;;;;;;26.38;15.15;;;1.40;92.40;;;;;;4971663;28;84446;-85
2021/01/16 15:25:57;;;;;;;26.70;15.13;;;1.30;92.70;;;;;;4962821;28;83786;-85
2021/01/16 15:28:24;;;;;;;26.25;15.55;;;1.10;92.40;;;;;;4956115;28;83629;-85
2021/01/16 15:31:01;;;;;;;28.95;16.50;;;1.00;92.90;;;;;;4967311;28;83579;-85
2021/01/16 15:33:39;;;;;;;26.58;16.33;;;0.90;93.00;;;;;;4964155;28;85838;-85
2021/01/16 15:36:05;;;;;;;25.77;14.75;;;0.80;94.10;;;;;;4960512;28;85172;-84
2021/01/16 15:38:39;;;;;;;25.67;15.32;;;0.70;94.60;;;;;;4966645;28;83411;-85
2021/01/16 15:41:06;;;;;;;25.92;14.73;;;0.60;95.20;;;;;;4959413;28;83971;-85
2021/01/16 15:43:36;;;;;;;30.40;16.63;;;0.50;96.20;;;;;;4958497;28;84266;-83
2021/01/16 15:46:09;;;;;;;30.95;17.27;;;0.20;97.50;;;;;;4969137;28;84355;-87
2021/01/16 15:48:44;;;;;;;29.85;16.38;;;0.20;97.70;;;;;;4966910;28;83755;-85
2021/01/16 15:51:34;;;;;;;31.20;17.55;;;0.10;98.60;;;;;;4979959;28;83596;-83
2021/01/16 15:54:11;;;;;;;33.83;17.80;;;-0.10;99.90;;;;;;4976305;28;84400;-83
2021/01/16 15:56:37;;;;;;;29.10;16.98;;;-0.30;99.90;;;;;;4976785;28;83351;-85
2021/01/16 15:59:05;;;;;;;29.65;15.32;;;-0.40;99.90;;;;;;4978933;28;83564;-85
2021/01/16 16:01:39;;;;;;;32.60;16.60;;;-0.50;99.90;;;;;;4987028;28;84188;-83
2021/01/16 16:04:14;;;;;;;27.45;15.55;;;-0.60;99.90;;;;;;4987874;28;84061;-85
2021/01/16 16:09:51;;;;;;;30.50;15.87;;;-0.80;99.90;;;;;;4949649;28;83632;-87
2021/01/16 16:12:16;;;;;;;28.13;15.35;;;-1.00;99.90;;;;;;4955746;28;87255;-87
2021/01/16 16:14:42;;;;;;;30.05;15.90;;;-1.10;99.90;;;;;;4955467;28;84279;-87
2021/01/16 16:17:08;;;;;;;33.10;16.35;;;-1.30;99.90;;;;;;4960176;28;85086;-87
2021/01/16 16:19:34;;;;;;;30.30;15.43;;;-1.40;99.90;;;;;;4967207;28;84093;-89
2021/01/16 16:22:00;;;;;;;33.38;15.93;;;-1.40;99.90;;;;;;4965841;28;84612;-86
2021/01/16 16:24:26;;;;;;;32.38;17.15;;;-1.40;99.90;;;;;;4961874;28;83908;-85
2021/01/16 16:26:51;;;;;;;34.00;17.25;;;-1.50;99.90;;;;;;4966150;28;83532;-88
2021/01/16 16:29:18;;;;;;;35.03;17.15;;;-1.50;99.90;;;;;;4963380;28;83731;-87
2021/01/16 16:31:44;;;;;;;31.38;16.15;;;-1.50;99.90;;;;;;4968611;28;84376;-85
2021/01/16 16:34:10;;;;;;;31.20;16.70;;;-1.60;99.90;;;;;;4954130;28;84839;-87
2021/01/16 16:36:40;;;;;;;33.15;16.92;;;-1.70;99.90;;;;;;4954673;28;83507;-84
2021/01/16 16:39:05;;;;;;;33.78;16.02;;;-1.80;99.90;;;;;;4966726;28;84086;-86
2021/01/16 16:41:32;;;;;;;31.77;17.45;;;-1.80;99.90;;;;;;4964172;28;87304;-86
2021/01/16 16:43:58;;;;;;;35.20;18.17;;;-2.10;99.90;;;;;;4961813;28;83766;-84
2021/01/16 16:46:23;;;;;;;38.22;18.67;;;-2.10;99.90;;;;;;4967925;28;83982;-86
2021/01/16 16:48:49;;;;;;;43.47;21.08;;;-2.20;99.90;;;;;;4975578;28;83746;-87
2021/01/16 16:51:15;;;;;;;41.08;19.77;;;-2.30;99.90;;;;;;4965324;28;84580;-87
2021/01/16 16:53:41;;;;;;;40.17;19.15;;;;;;;;;;4969371;28;87268;-87
2021/01/16 16:56:07;;;;;;;37.20;19.70;;;;;;;;;;4964860;28;84890;-86
2021/01/16 16:58:33;;;;;;;37.90;18.27;;;;;;;;;;4957920;28;84029;-88
2021/01/16 17:00:59;;;;;;;35.90;17.80;;;;;;;;;;4959657;28;87816;-85
2021/01/16 17:03:26;;;;;;;36.33;19.05;;;-2.40;99.90;;;;;;4968043;28;84113;-89
2021/01/16 17:05:52;;;;;;;35.85;17.88;;;-2.40;99.90;;;;;;4969924;28;84481;-85